Time;durP1;ratioP1;P1;durP2;ratioP2;P2;SDS_P1;SDS_P2;PMS_P1;PMS_P2;Temp;Humidity;BMP_temperature;BMP_pressure;BME280_temperature;BME280_humidity;BME280_pressure;Samples;Min_cycle;Max_cycle;Signal;HPM_P1;HPM_P2
2023/06/27 00:00:38;;;;;;;40.75;4.75;;;;;;;18.81;100.00;101929.13;5011681;28;20038;-77
2023/06/27 00:03:05;;;;;;;28.23;4.43;;;;;;;18.75;100.00;101938.97;5010268;28;20113;-77
2023/06/27 00:05:31;;;;;;;51.73;5.13;;;;;;;18.72;100.00;101933.06;5013384;28;20457;-77
2023/06/27 00:07:56;;;;;;;34.60;5.10;;;;;;;18.58;100.00;101941.22;5014097;28;20050;-77
2023/06/27 00:10:22;;;;;;;31.23;5.18;;;;;;;18.56;100.00;101935.19;5015201;28;20054;-76
2023/06/27 00:12:47;;;;;;;35.08;5.10;;;;;;;18.54;100.00;101930.97;5015334;28;20030;-77
2023/06/27 00:15:13;;;;;;;26.13;4.32;;;;;;;18.50;100.00;101935.97;5015342;28;20040;-77
2023/06/27 00:17:40;;;;;;;28.55;4.65;;;;;;;18.49;100.00;101936.22;5015624;28;20026;-77
2023/06/27 00:20:08;;;;;;;16.20;3.95;;;;;;;18.47;100.00;101930.94;5015116;28;20084;-78
2023/06/27 00:22:34;;;;;;;30.92;3.72;;;;;;;18.46;100.00;101932.00;5015819;28;20037;-77
2023/06/27 00:24:59;;;;;;;27.38;4.32;;;;;;;18.50;100.00;101932.44;5015587;28;20105;-77
2023/06/27 00:27:25;;;;;;;31.20;3.80;;;;;;;18.51;100.00;101939.53;5014834;28;20026;-78
2023/06/27 00:29:50;;;;;;;28.20;4.03;;;;;;;18.50;100.00;101943.34;5015451;28;20057;-77
2023/06/27 00:32:15;;;;;;;19.08;3.78;;;;;;;18.49;100.00;101941.66;5015043;28;20030;-77
2023/06/27 00:34:41;;;;;;;26.90;3.90;;;;;;;18.47;100.00;101943.75;5015549;28;20037;-77
2023/06/27 00:37:06;;;;;;;15.38;3.33;;;;;;;18.47;100.00;101943.75;5014917;28;20033;-78
2023/06/27 00:39:32;;;;;;;25.20;4.00;;;;;;;18.50;100.00;101938.72;5015587;28;20141;-77
2023/06/27 00:41:57;;;;;;;26.05;3.90;;;;;;;18.55;100.00;101940.81;5020482;28;20022;-78
2023/06/27 00:44:23;;;;;;;22.05;4.45;;;;;;;18.59;100.00;101937.47;5001930;28;20141;-78
2023/06/27 00:46:50;;;;;;;21.30;4.15;;;;;;;18.62;100.00;101939.78;5015624;28;20527;-77
2023/06/27 00:49:16;;;;;;;27.35;3.65;;;;;;;18.64;100.00;101945.88;5019320;28;20033;-77
2023/06/27 00:51:42;;;;;;;18.88;3.53;;;;;;;18.69;100.00;101938.94;5017151;28;21393;-78
2023/06/27 00:54:08;;;;;;;23.50;3.72;;;;;;;18.71;100.00;101940.41;4978865;28;20041;-77
2023/06/27 00:56:34;;;;;;;19.15;3.40;;;;;;;18.74;100.00;101939.97;5015413;28;20121;-77
2023/06/27 00:59:01;;;;;;;18.95;4.10;;;;;;;18.77;100.00;101939.63;5025503;28;20043;-77
2023/06/27 01:01:29;;;;;;;15.10;3.00;;;;;;;18.79;100.00;101942.13;5016353;28;20033;-78
2023/06/27 01:03:54;;;;;;;;;;;;;;;18.77;100.00;101936.91;5017152;28;20025;-75
2023/06/27 01:06:29;;;;;;;24.27;4.07;;;;;;;18.68;100.00;101940.84;5014313;28;20442;-77
2023/06/27 01:09:00;;;;;;;21.17;3.38;;;;;;;18.63;100.00;101940.63;5014341;28;20029;-78
2023/06/27 01:11:29;;;;;;;16.55;3.50;;;;;;;18.62;100.00;101941.69;4981710;28;20057;-77
2023/06/27 01:13:56;;;;;;;15.63;3.38;;;;;;;18.61;100.00;101940.81;5014034;28;20033;-77
2023/06/27 01:16:25;;;;;;;18.00;3.70;;;;;;;18.62;100.00;101939.78;5013876;28;20405;-77
2023/06/27 01:18:50;;;;;;;28.10;3.60;;;;;;;18.65;100.00;101935.81;5015703;28;20041;-76
2023/06/27 01:21:20;;;;;;;20.58;3.35;;;;;;;18.65;100.00;101942.09;5015502;28;20030;-77
2023/06/27 01:23:53;;;;;;;19.50;3.38;;;;;;;18.62;100.00;101937.06;5013435;28;20109;-77
2023/06/27 01:26:18;;;;;;;18.70;3.58;;;;;;;18.61;100.00;101939.97;5012748;28;20018;-77
2023/06/27 01:28:44;;;;;;;20.90;3.47;;;;;;;18.61;100.00;101934.53;5012400;28;20085;-77
2023/06/27 01:31:19;;;;;;;17.23;4.07;;;;;;;18.60;100.00;101939.16;5012916;28;20041;-76
2023/06/27 01:33:52;;;;;;;16.85;3.75;;;;;;;18.63;100.00;101943.34;4992771;28;20081;-76
2023/06/27 01:36:23;;;;;;;18.90;3.85;;;;;;;18.62;100.00;101934.31;4988898;28;20054;-77
2023/06/27 01:38:54;;;;;;;20.17;3.75;;;;;;;18.58;100.00;101935.78;4998249;28;20030;-77
2023/06/27 01:41:20;;;;;;;22.20;4.00;;;;;;;18.59;100.00;101932.03;5010150;28;20080;-78
2023/06/27 01:43:46;;;;;;;10.73;3.22;;;;;;;18.59;100.00;101932.03;4996474;28;20038;-78
2023/06/27 01:46:12;;;;;;;21.02;4.28;;;;;;;18.55;100.00;101936.19;5012076;28;20060;-77
2023/06/27 01:48:40;;;;;;;20.95;3.35;;;;;;;18.52;100.00;101936.63;4985936;28;20061;-77
2023/06/27 01:51:09;;;;;;;18.23;3.53;;;;;;;18.50;100.00;101930.53;5010775;28;20037;-77
2023/06/27 01:53:36;;;;;;;13.35;3.42;;;;;;;18.52;100.00;101936.63;5011830;28;20097;-78
2023/06/27 01:56:02;;;;;;;11.60;3.20;;;;;;;18.56;100.00;101939.75;5020197;28;20060;-78
2023/06/27 01:58:27;;;;;;;18.55;3.25;;;;;;;18.60;100.00;101939.16;4990434;28;20022;-77
2023/06/27 02:00:53;;;;;;;18.75;3.22;;;;;;;18.62;100.00;101937.06;5003417;28;20034;-77
2023/06/27 02:03:18;;;;;;;21.80;4.18;;;;;;;18.60;100.00;101936.41;5013697;28;20033;-77
2023/06/27 02:05:43;;;;;;;18.23;3.38;;;;;;;18.56;100.00;101934.31;5010957;28;20476;-77
2023/06/27 02:08:09;;;;;;;13.32;3.67;;;;;;;18.52;100.00;101939.34;5012615;28;20073;-77
2023/06/27 02:10:34;;;;;;;21.10;3.45;;;;;;;18.51;100.00;101937.69;5012743;28;20086;-77
2023/06/27 02:13:03;;;;;;;18.05;3.53;;;;;;;18.50;100.00;101932.44;5014497;28;20319;-77
2023/06/27 02:15:29;;;;;;;11.68;2.97;;;;;;;18.46;100.00;101926.56;4998502;28;20041;-77
2023/06/27 02:17:54;;;;;;;18.15;3.50;;;;;;;18.45;100.00;101924.88;5015318;28;20034;-77
2023/06/27 02:20:19;;;;;;;19.35;3.13;;;;;;;18.42;100.00;101928.00;5012199;28;20026;-77
2023/06/27 02:22:45;;;;;;;14.60;3.13;;;;;;;18.37;100.00;101922.34;5013639;28;20045;-77
2023/06/27 02:25:10;;;;;;;10.70;2.95;;;;;;;18.30;100.00;101921.47;4995094;28;20036;-78
2023/06/27 02:27:35;;;;;;;13.98;3.45;;;;;;;18.19;100.00;101922.94;5013663;28;20551;-78
2023/06/27 02:30:01;;;;;;;17.73;3.72;;;;;;;18.13;100.00;101916.41;5018530;28;20060;-78
2023/06/27 02:32:26;;;;;;;19.23;3.40;;;;;;;18.09;100.00;101919.75;5020072;28;20036;-78
2023/06/27 02:34:52;;;;;;;15.00;3.53;;;;;;;18.03;100.00;101924.16;5019584;28;20029;-79
2023/06/27 02:37:18;;;;;;;20.20;3.58;;;;;;;18.02;100.00;101930.66;5017483;28;20030;-78
2023/06/27 02:39:43;;;;;;;18.63;3.80;;;;;;;18.01;100.00;101928.13;5002718;28;20036;-78
2023/06/27 02:42:08;;;;;;;13.55;3.35;;;;;;;18.02;100.00;101936.09;5013653;28;20025;-77
2023/06/27 02:44:34;;;;;;;13.25;3.58;;;;;;;18.03;100.00;101928.75;5012944;28;20030;-76
2023/06/27 02:46:59;;;;;;;19.50;3.65;;;;;;;17.99;100.00;101934.63;5013101;28;20033;-78
2023/06/27 02:49:24;;;;;;;18.67;3.25;;;;;;;18.01;100.00;101937.16;5014212;28;20030;-78
2023/06/27 02:51:50;;;;;;;18.55;3.17;;;;;;;17.97;100.00;101938.59;5008232;28;20407;-77
2023/06/27 02:54:16;;;;;;;14.27;2.78;;;;;;;17.89;100.00;101939.59;5022169;28;20053;-78
2023/06/27 02:56:41;;;;;;;15.52;3.10;;;;;;;17.85;100.00;101940.22;5020601;28;20058;-78
2023/06/27 02:59:07;;;;;;;14.93;3.20;;;;;;;17.80;100.00;101943.56;5014455;28;20049;-77
2023/06/27 03:01:32;;;;;;;17.00;3.40;;;;;;;17.71;100.00;101942.84;5011697;28;20124;-77
2023/06/27 03:03:57;;;;;;;18.85;3.72;;;;;;;17.66;100.00;101950.78;5010613;28;20688;-77
2023/06/27 03:06:23;;;;;;;21.67;3.92;;;;;;;17.63;100.00;101955.81;4992433;28;20021;-77
2023/06/27 03:08:49;;;;;;;18.13;3.95;;;;;;;17.61;100.00;101956.00;4992090;28;20037;-77
2023/06/27 03:11:14;;;;;;;15.05;3.42;;;;;;;17.61;100.00;101950.53;5011157;28;20408;-77
2023/06/27 03:13:40;;;;;;;21.33;3.65;;;;;;;17.61;100.00;101947.81;5010876;28;20036;-77
2023/06/27 03:16:05;;;;;;;21.58;3.45;;;;;;;17.61;100.00;101945.09;5012844;28;20033;-77
2023/06/27 03:18:31;;;;;;;16.98;3.95;;;;;;;17.60;100.00;101953.47;5013171;28;20026;-77
2023/06/27 03:20:56;;;;;;;17.77;4.18;;;;;;;17.57;100.00;101945.72;5012995;28;20124;-77
2023/06/27 03:23:21;;;;;;;14.52;2.95;;;;;;;17.56;100.00;101958.47;5012191;28;20060;-78
2023/06/27 03:25:47;;;;;;;14.38;3.50;;;;;;;17.51;100.00;101952.81;5012941;28;20376;-77
2023/06/27 03:28:12;;;;;;;22.90;3.38;;;;;;;17.47;100.00;101954.25;4997347;28;20045;-77
2023/06/27 03:30:43;;;;;;;14.90;3.78;;;;;;;17.40;100.00;101956.09;5014779;28;20038;-78
2023/06/27 03:33:09;;;;;;;20.52;3.63;;;;;;;17.40;100.00;101964.25;4996235;28;20026;-78
2023/06/27 03:35:34;;;;;;;18.27;3.80;;;;;;;17.36;100.00;101962.97;4997209;28;20034;-77
2023/06/27 03:38:00;;;;;;;24.10;3.95;;;;;;;17.35;100.00;101962.13;5016833;28;20033;-77
2023/06/27 03:40:25;;;;;;;16.88;4.28;;;;;;;17.34;100.00;101966.72;5014649;28;20041;-77
2023/06/27 03:42:50;;;;;;;15.75;3.50;;;;;;;17.32;100.00;101963.38;4997018;28;20026;-77
2023/06/27 03:45:16;;;;;;;16.60;3.67;;;;;;;17.34;100.00;101961.28;5014501;28;20428;-77
2023/06/27 03:47:41;;;;;;;15.05;3.60;;;;;;;17.38;100.00;101960.88;4998300;28;20045;-78
2023/06/27 03:50:07;;;;;;;15.02;2.88;;;;;;;17.40;100.00;101965.06;4997169;28;20045;-77
2023/06/27 03:52:32;;;;;;;19.73;3.70;;;;;;;17.43;100.00;101961.13;5015905;28;20025;-77
2023/06/27 03:54:58;;;;;;;18.40;4.10;;;;;;;17.39;100.00;101962.56;5015160;28;20125;-76
2023/06/27 03:57:23;;;;;;;20.23;3.75;;;;;;;17.33;100.00;101973.22;5013891;28;20054;-78
2023/06/27 03:59:48;;;;;;;19.70;3.92;;;;;;;17.28;100.00;101975.69;5017932;28;20109;-78
2023/06/27 04:02:14;;;;;;;10.85;3.65;;;;;;;17.23;100.00;101972.72;5032030;28;20400;-77
2023/06/27 04:04:39;;;;;;;16.98;3.78;;;;;;;17.23;100.00;101978.16;5034083;28;20030;-77
2023/06/27 04:07:05;;;;;;;14.90;4.13;;;;;;;17.25;100.00;101984.25;5020499;28;20580;-78
2023/06/27 04:09:30;;;;;;;14.85;3.28;;;;;;;17.26;100.00;101980.47;5019464;28;20121;-77
2023/06/27 04:11:58;;;;;;;22.23;4.35;;;;;;;17.24;100.00;101974.41;5019946;28;20370;-77
2023/06/27 04:14:24;;;;;;;17.35;3.47;;;;;;;17.23;100.00;101975.44;5020433;28;20056;-78
2023/06/27 04:16:49;;;;;;;13.00;3.42;;;;;;;17.25;100.00;101975.25;5000863;28;20033;-79
2023/06/27 04:19:14;;;;;;;23.17;3.88;;;;;;;17.24;100.00;101976.28;5020159;28;20109;-77
2023/06/27 04:21:40;;;;;;;14.90;3.20;;;;;;;17.23;100.00;101974.59;5016090;28;20384;-77
2023/06/27 04:24:06;;;;;;;13.45;3.30;;;;;;;17.25;100.00;101972.53;5018065;28;20034;-77
2023/06/27 04:26:31;;;;;;;14.23;2.65;;;;;;;17.28;100.00;101983.03;5013194;28;20066;-76
2023/06/27 04:28:56;;;;;;;11.25;2.70;;;;;;;17.29;100.00;101974.66;5014206;28;20038;-78
2023/06/27 04:31:22;;;;;;;6.00;2.15;;;;;;;17.33;100.00;101973.22;5013651;28;20076;-77
2023/06/27 04:33:48;;;;;;;13.20;2.72;;;;;;;17.37;100.00;101975.53;5012790;28;20076;-77
2023/06/27 04:36:15;;;;;;;13.38;2.67;;;;;;;17.39;100.00;101968.84;5014307;28;20088;-76
2023/06/27 04:38:41;;;;;;;11.68;2.25;;;;;;;17.40;100.00;101964.25;5014237;28;20068;-77
2023/06/27 04:41:08;;;;;;;12.25;2.63;;;;;;;17.43;100.00;101972.00;5015010;28;20026;-77
2023/06/27 04:43:34;;;;;;;10.90;2.45;;;;;;;17.46;100.00;101969.75;5016994;28;20034;-77
2023/06/27 04:45:59;;;;;;;22.27;4.85;;;;;;;17.49;100.00;101966.63;5010419;28;20068;-77
2023/06/27 04:48:25;;;;;;;13.93;2.78;;;;;;;17.53;100.00;101969.78;5015647;28;20042;-77
2023/06/27 04:50:51;;;;;;;5.30;1.77;;;;;;;17.60;100.00;101958.94;4998580;28;20030;-77
2023/06/27 04:53:19;;;;;;;13.65;2.67;;;;;;;17.69;100.00;101963.16;5017169;28;20037;-77
2023/06/27 04:55:45;;;;;;;17.27;2.33;;;;;;;17.75;100.00;101968.66;5016264;28;20056;-77
2023/06/27 04:58:10;;;;;;;6.78;1.85;;;;;;;17.86;100.00;101961.81;5025866;28;20021;-78
2023/06/27 05:00:36;;;;;;;4.75;1.67;;;;;;;17.94;100.00;101958.06;5017270;28;20126;-79
2023/06/27 05:03:01;;;;;;;8.75;1.50;;;;;;;18.02;100.00;101963.34;5011862;28;20038;-78
2023/06/27 05:05:32;;;;;;;11.82;2.17;;;;;;;18.06;100.00;101963.75;5015213;28;20086;-77
2023/06/27 05:07:59;;;;;;;5.63;1.83;;;;;;;18.10;100.00;101960.44;5017027;28;20036;-77
2023/06/27 05:10:25;;;;;;;5.35;1.52;;;;;;;18.20;100.00;101960.88;5016452;28;20022;-77
2023/06/27 05:12:50;;;;;;;4.32;1.60;;;;;;;18.29;100.00;101963.41;5014385;28;20404;-77
2023/06/27 05:15:16;;;;;;;7.93;1.60;;;;;;;18.38;100.00;101962.19;5015409;28;20057;-77
2023/06/27 05:17:54;;;;;;;7.93;1.85;;;;;;;18.53;100.00;101960.09;5014486;28;20048;-77
2023/06/27 05:20:20;;;;;;;15.90;1.80;;;;;;;18.68;100.00;101959.91;5014781;28;20040;-77
2023/06/27 05:22:46;;;;;;;10.02;1.50;;;;;;;18.79;100.00;101959.31;5015888;28;20026;-77
2023/06/27 05:25:11;;;;;;;10.85;1.70;;;;;;;18.84;100.00;101956.81;4997163;28;20433;-77
2023/06/27 05:27:37;;;;;;;5.28;1.50;;;;;;;18.94;100.00;101956.38;4995588;28;20033;-77
2023/06/27 05:30:03;;;;;;;7.47;1.58;;;;;;;19.05;100.00;101952.19;5016236;28;20025;-77
2023/06/27 05:32:28;;;;;;;8.80;1.80;;;;;;;19.08;100.00;101959.94;5013714;28;20031;-78
2023/06/27 05:34:54;;;;;;;8.07;1.40;;;;;;;19.12;100.00;101963.09;5015023;28;20026;-78
2023/06/27 05:37:19;;;;;;;3.80;1.58;;;;;;;19.17;100.00;101955.09;5017127;28;20476;-77
2023/06/27 05:39:44;;;;;;;5.38;1.30;;;;;;;19.30;100.00;101966.84;5015395;28;20026;-78
2023/06/27 05:42:10;;;;;;;6.10;1.63;;;;;;;19.36;100.00;101965.16;4998641;28;20587;-77
2023/06/27 05:44:35;;;;;;;3.67;1.40;;;;;;;19.45;100.00;101965.75;4998648;28;20033;-78
2023/06/27 05:47:00;;;;;;;5.03;1.33;;;;;;;19.46;100.00;101957.38;4996890;28;20033;-78
2023/06/27 05:49:26;;;;;;;6.00;1.40;;;;;;;19.57;100.00;101955.03;4996179;28;20041;-77
2023/06/27 05:51:51;;;;;;;5.68;1.58;;;;;;;19.69;100.00;101958.78;5015934;28;20026;-77
2023/06/27 05:54:16;;;;;;;4.03;1.40;;;;;;;19.85;100.00;101952.88;5000796;28;20093;-77
2023/06/27 05:56:42;;;;;;;6.85;1.73;;;;;;;19.94;100.00;101957.00;5016929;28;20507;-78
2023/06/27 05:59:08;;;;;;;5.07;1.35;;;;;;;20.02;100.00;101960.56;5014120;28;20087;-78
2023/06/27 06:01:35;;;;;;;4.30;1.30;;;;;;;19.91;100.00;101959.34;4995777;28;20389;-77
2023/06/27 06:04:01;;;;;;;8.75;1.75;;;;;;;19.97;100.00;101960.38;5015977;28;20036;-77
2023/06/27 06:06:27;;;;;;;6.30;1.75;;;;;;;20.11;100.00;101959.25;5016480;28;20093;-78
2023/06/27 06:08:52;;;;;;;5.82;1.70;;;;;;;20.15;100.00;101969.53;5016259;28;20499;-78
2023/06/27 06:11:18;;;;;;;6.22;1.55;;;;;;;20.22;100.00;101971.38;5014128;28;20492;-77
2023/06/27 06:13:43;;;;;;;9.43;1.80;;;;;;;20.23;100.00;101970.34;5013106;28;20108;-77
2023/06/27 06:16:08;;;;;;;7.57;1.55;;;;;;;20.30;100.00;101960.19;5014913;28;20093;-77
2023/06/27 06:18:34;;;;;;;4.78;1.67;;;;;;;20.37;100.00;101961.81;5015022;28;20033;-77
2023/06/27 06:20:59;;;;;;;4.63;1.60;;;;;;;20.53;100.00;101968.66;4994692;28;20057;-77
2023/06/27 06:23:24;;;;;;;8.35;1.50;;;;;;;20.75;100.00;101968.34;5011919;28;20034;-76
2023/06/27 06:25:50;;;;;;;7.28;1.58;;;;;;;20.81;100.00;101961.97;5012485;28;20056;-77
2023/06/27 06:28:15;;;;;;;3.95;1.20;;;;;;;21.10;100.00;101970.56;4994656;28;20118;-79
2023/06/27 06:30:41;;;;;;;6.28;1.38;;;;;;;21.50;100.00;101979.25;5013419;28;20033;-77
2023/06/27 06:33:06;;;;;;;12.00;1.50;;;;;;;21.84;100.00;101976.97;5014899;28;20109;-78
2023/06/27 06:35:31;;;;;;;6.82;1.17;;;;;;;22.18;100.00;101963.69;4997196;28;20421;-78
2023/06/27 06:37:57;;;;;;;2.72;1.10;;;;;;;22.42;100.00;101975.59;5014355;28;20064;-79
2023/06/27 06:40:24;;;;;;;9.40;1.10;;;;;;;22.54;98.64;101984.72;5013837;28;20476;-77
2023/06/27 06:42:49;;;;;;;5.68;1.30;;;;;;;22.54;98.86;101987.44;5013944;28;20044;-77
2023/06/27 06:45:16;;;;;;;5.85;1.42;;;;;;;22.53;98.20;101986.59;4993522;28;20439;-77
2023/06/27 06:47:41;;;;;;;5.80;1.25;;;;;;;22.72;99.24;101995.63;5016705;28;20484;-79
2023/06/27 06:50:07;;;;;;;9.50;2.85;;;;;;;22.90;96.13;101988.34;5011205;28;20025;-76
2023/06/27 06:52:32;;;;;;;4.68;1.65;;;;;;;22.89;94.82;101990.25;5011374;28;20037;-75
2023/06/27 06:54:57;;;;;;;9.95;1.73;;;;;;;23.02;96.18;101982.91;5012567;28;20101;-78
2023/06/27 06:57:23;;;;;;;5.70;1.80;;;;;;;23.18;95.26;101977.53;5014199;28;20105;-77
2023/06/27 06:59:48;;;;;;;9.27;1.50;;;;;;;23.18;91.84;101983.03;5012420;28;20032;-77
2023/06/27 07:02:14;;;;;;;13.05;1.52;;;;;;;23.20;92.38;101985.56;5011879;28;20117;-78
2023/06/27 07:04:39;;;;;;;5.20;1.15;;;;;;;23.25;91.10;101988.44;5015896;28;20018;-78
2023/06/27 07:07:05;;;;;;;3.90;1.00;;;;;;;23.22;90.45;101988.88;5012563;28;20029;-77
2023/06/27 07:09:30;;;;;;;6.38;1.33;;;;;;;23.11;91.86;101992.47;4995285;28;20034;-77
2023/06/27 07:11:56;;;;;;;6.47;1.50;;;;;;;23.06;90.35;101990.41;5012206;28;20113;-76
2023/06/27 07:14:21;;;;;;;3.83;1.00;;;;;;;22.77;93.20;101989.41;5015409;28;20453;-77
2023/06/27 07:16:46;;;;;;;9.75;1.67;;;;;;;22.54;95.17;101980.06;4998381;28;20022;-78
2023/06/27 07:19:12;;;;;;;4.03;1.17;;;;;;;22.43;95.94;101991.81;5016866;28;20029;-78
2023/06/27 07:21:37;;;;;;;5.00;1.40;;;;;;;22.41;95.82;101991.22;5019509;28;20600;-78
2023/06/27 07:24:04;;;;;;;4.93;1.20;;;;;;;22.32;97.65;101989.88;5001265;28;20025;-77
2023/06/27 07:26:30;;;;;;;8.73;1.33;;;;;;;22.20;98.61;101992.56;5018611;28;20033;-78
2023/06/27 07:28:55;;;;;;;12.85;1.30;;;;;;;22.18;96.07;101991.09;5001537;28;20029;-78
2023/06/27 07:31:21;;;;;;;9.38;1.52;;;;;;;22.03;97.34;101988.75;5019702;28;20041;-78
2023/06/27 07:33:47;;;;;;;3.58;1.20;;;;;;;21.93;100.00;101992.03;5020391;28;20030;-77
2023/06/27 07:36:12;;;;;;;4.47;1.15;;;;;;;21.81;97.61;101988.41;5020676;28;20439;-77
2023/06/27 07:38:38;;;;;;;5.20;1.27;;;;;;;21.76;99.43;101996.47;5021516;28;20091;-77
2023/06/27 07:41:03;;;;;;;4.00;1.20;;;;;;;22.00;99.89;101991.94;5001090;28;20034;-78
2023/06/27 07:43:28;;;;;;;6.22;1.30;;;;;;;22.04;99.81;101991.28;5000481;28;20025;-78
2023/06/27 07:45:54;;;;;;;4.82;1.10;;;;;;;22.16;98.02;101995.97;5018620;28;20112;-77
2023/06/27 07:48:19;;;;;;;9.38;2.10;;;;;;;22.19;98.44;101992.78;5016131;28;20473;-77
2023/06/27 07:50:44;;;;;;;5.60;1.60;;;;;;;22.24;98.31;101993.75;5014852;28;20030;-77
2023/06/27 07:53:10;;;;;;;7.20;1.38;;;;;;;22.29;96.09;102002.13;5014135;28;20032;-77
2023/06/27 07:55:35;;;;;;;5.85;1.20;;;;;;;22.26;95.14;102013.56;5014439;28;20092;-78
2023/06/27 07:58:01;;;;;;;10.10;1.55;;;;;;;22.18;93.63;102005.63;5014568;28;20034;-77
2023/06/27 08:00:26;;;;;;;4.63;1.23;;;;;;;22.15;94.26;102008.84;5014581;28;20026;-77
2023/06/27 08:02:51;;;;;;;9.10;1.60;;;;;;;22.28;93.39;102005.97;4996858;28;20469;-77
2023/06/27 08:05:18;;;;;;;6.60;1.23;;;;;;;22.17;94.25;102008.59;5016395;28;20021;-77
2023/06/27 08:07:43;;;;;;;4.67;1.40;;;;;;;22.30;94.94;102013.94;5015293;28;20057;-76
2023/06/27 08:10:11;;;;;;;6.03;1.45;;;;;;;22.39;95.76;102011.72;5014887;28;20026;-77
2023/06/27 08:12:37;;;;;;;4.97;1.30;;;;;;;22.50;92.04;101994.47;4997217;28;20060;-77
2023/06/27 08:15:02;;;;;;;4.60;1.10;;;;;;;22.45;93.25;102006.13;5014460;28;20061;-78
2023/06/27 08:17:28;;;;;;;3.92;1.17;;;;;;;22.43;92.55;101996.47;5000746;28;20030;-77
2023/06/27 08:19:53;;;;;;;7.53;1.48;;;;;;;22.49;93.04;102001.03;5014152;28;20022;-77
2023/06/27 08:22:18;;;;;;;4.05;1.38;;;;;;;22.53;92.09;102003.06;5014146;28;20046;-78
2023/06/27 08:24:44;;;;;;;4.63;1.17;;;;;;;22.31;93.31;102001.91;5016161;28;20025;-76
2023/06/27 08:27:09;;;;;;;9.00;1.55;;;;;;;22.25;93.09;102006.44;4996395;28;20030;-78
2023/06/27 08:29:35;;;;;;;5.00;1.40;;;;;;;22.14;94.13;102002.53;5016211;28;20026;-78
2023/06/27 08:32:01;;;;;;;3.70;1.20;;;;;;;22.16;92.83;102007.75;5014698;28;20033;-78
2023/06/27 08:34:28;;;;;;;6.78;1.50;;;;;;;22.03;91.56;102006.03;5014647;28;20439;-77
2023/06/27 08:36:54;;;;;;;14.18;1.65;;;;;;;21.88;93.33;102006.44;5014545;28;20033;-78
2023/06/27 08:39:19;;;;;;;6.35;1.20;;;;;;;21.74;95.04;102004.91;5017091;28;20384;-79
2023/06/27 08:41:47;;;;;;;8.32;1.40;;;;;;;21.74;96.89;102009.56;5017180;28;20477;-78
2023/06/27 08:44:14;;;;;;;5.15;1.23;;;;;;;21.63;92.14;102002.94;5018705;28;20030;-78
2023/06/27 08:46:40;;;;;;;4.30;1.77;;;;;;;21.64;93.70;102010.94;5017179;28;20132;-77
2023/06/27 08:49:07;;;;;;;7.40;1.48;;;;;;;21.60;96.06;102015.19;5015121;28;20184;-79
2023/06/27 08:51:33;;;;;;;4.60;1.38;;;;;;;21.60;99.85;102017.91;4996241;28;20030;-77
2023/06/27 08:54:12;;;;;;;5.68;1.63;;;;;;;21.66;98.95;102010.69;5013598;28;20045;-78
2023/06/27 08:56:38;;;;;;;5.95;1.48;;;;;;;21.65;96.32;102015.34;5016365;28;20405;-77
2023/06/27 08:59:07;;;;;;;7.45;1.52;;;;;;;21.58;95.57;102011.00;4997708;28;20030;-77
2023/06/27 09:01:33;;;;;;;8.75;1.75;;;;;;;21.53;96.05;102014.41;5016002;28;20036;-78
2023/06/27 09:04:00;;;;;;;5.47;1.30;;;;;;;21.47;99.30;102016.16;5015238;28;20025;-78
2023/06/27 09:06:26;;;;;;;7.28;1.73;;;;;;;21.40;100.00;102029.06;5014347;28;20612;-77
2023/06/27 09:08:52;;;;;;;5.95;1.50;;;;;;;21.52;100.00;102009.16;4995664;28;20109;-77
2023/06/27 09:11:17;;;;;;;4.60;1.50;;;;;;;21.64;100.00;102021.03;5013852;28;20112;-77
2023/06/27 09:13:43;;;;;;;10.43;1.60;;;;;;;21.90;100.00;102017.16;5015733;28;20025;-78
2023/06/27 09:16:08;;;;;;;5.13;1.42;;;;;;;22.19;95.00;102022.94;5017488;28;20072;-77
2023/06/27 09:18:35;;;;;;;4.07;1.25;;;;;;;22.40;93.82;102025.19;5017386;28;20026;-78
2023/06/27 09:21:01;;;;;;;5.55;1.40;;;;;;;22.37;95.59;102019.34;5000681;28;20041;-77
2023/06/27 09:23:28;;;;;;;7.97;1.40;;;;;;;22.63;96.52;102020.88;5016770;28;20033;-77
2023/06/27 09:26:12;;;;;;;6.15;1.42;;;;;;;23.23;94.32;102029.03;5014070;28;20026;-77
2023/06/27 09:28:46;;;;;;;7.45;1.38;;;;;;;24.05;87.43;102028.13;5014666;28;20037;-76
2023/06/27 09:31:13;;;;;;;7.70;1.65;;;;;;;25.13;80.36;102015.28;5015395;28;20037;-78
2023/06/27 09:33:39;;;;;;;7.47;1.75;;;;;;;26.11;75.39;102013.91;4998355;28;20022;-76
2023/06/27 09:36:04;;;;;;;9.33;1.80;;;;;;;26.25;75.08;102010.50;4997121;28;20117;-76
2023/06/27 09:38:32;;;;;;;6.13;1.30;;;;;;;26.97;71.28;102010.41;5013153;28;20417;-77
2023/06/27 09:41:05;;;;;;;4.07;1.30;;;;;;;26.88;70.75;102019.16;4999034;28;20014;-77
2023/06/27 09:43:33;;;;;;;7.20;1.50;;;;;;;26.66;72.24;102023.91;5015079;28;20041;-77
2023/06/27 09:45:59;;;;;;;7.18;1.35;;;;;;;25.97;70.48;102019.00;5014326;28;20022;-77
2023/06/27 09:48:24;;;;;;;5.70;1.40;;;;;;;25.22;74.00;102012.13;5016204;28;20030;-76
2023/06/27 09:50:57;;;;;;;7.07;1.30;;;;;;;25.25;74.46;102011.59;5014506;28;20491;-77
2023/06/27 09:53:22;;;;;;;5.55;1.27;;;;;;;25.02;72.11;102016.19;5012612;28;20670;-77
2023/06/27 09:55:48;;;;;;;5.20;1.30;;;;;;;25.04;75.25;102015.94;5010664;28;20054;-77
2023/06/27 09:58:13;;;;;;;6.75;1.52;;;;;;;25.05;76.61;102017.63;5012789;28;20362;-78
2023/06/27 10:00:39;;;;;;;6.82;1.65;;;;;;;25.53;75.25;102019.75;5013022;28;20041;-78
2023/06/27 10:03:08;;;;;;;6.40;1.30;;;;;;;25.66;73.96;102026.00;5012284;28;20123;-77
2023/06/27 10:05:33;;;;;;;6.22;1.55;;;;;;;25.48;74.16;102024.34;4995125;28;20050;-78
2023/06/27 10:07:59;;;;;;;9.77;1.60;;;;;;;25.08;73.11;102023.44;5013030;28;20544;-76
2023/06/27 10:10:25;;;;;;;4.40;1.20;;;;;;;25.08;75.94;102015.19;5012938;28;20687;-77
2023/06/27 10:12:51;;;;;;;4.13;1.40;;;;;;;25.18;77.28;102031.09;5013047;28;20029;-78
2023/06/27 10:15:17;;;;;;;4.10;1.38;;;;;;;25.35;74.98;102022.78;4996132;28;20026;-77
2023/06/27 10:17:44;;;;;;;9.80;1.70;;;;;;;25.36;72.54;102016.22;5015795;28;20510;-77
2023/06/27 10:20:11;;;;;;;4.00;1.17;;;;;;;25.35;75.11;102017.28;4997754;28;20040;-77
2023/06/27 10:22:40;;;;;;;8.45;1.70;;;;;;;25.34;74.44;102012.88;4999404;28;20049;-78
2023/06/27 10:25:08;;;;;;;10.27;1.35;;;;;;;25.58;72.40;102017.06;4997427;28;20231;-77
2023/06/27 10:27:36;;;;;;;5.93;1.50;;;;;;;25.90;73.86;102016.41;4996953;28;20042;-77
2023/06/27 10:30:04;;;;;;;;;;;;;;;26.01;72.97;102020.13;5015275;28;20022;-77
2023/06/27 10:32:40;;;;;;;5.53;1.58;;;;;;;25.93;71.48;102026.09;5014325;28;19909;-78
2023/06/27 10:35:10;;;;;;;7.75;1.67;;;;;;;26.23;73.81;102029.25;5013296;28;20018;-77
2023/06/27 10:37:39;;;;;;;4.75;1.30;;;;;;;26.43;73.28;102025.84;5014824;28;20125;-78
2023/06/27 10:40:06;;;;;;;4.65;1.33;;;;;;;25.89;73.57;102034.06;5013814;28;20076;-76
2023/06/27 10:42:32;;;;;;;9.15;1.95;;;;;;;25.72;74.09;102030.47;5013486;28;20029;-77
2023/06/27 10:45:01;;;;;;;6.28;1.60;;;;;;;25.75;74.73;102021.69;5015127;28;20045;-78
2023/06/27 10:47:44;;;;;;;13.27;3.97;;;;;;;25.37;73.86;102015.94;4997830;28;20025;-78
2023/06/27 10:50:10;;;;;;;9.10;1.90;;;;;;;25.36;75.05;102024.47;5015635;28;20040;-77
2023/06/27 10:52:36;;;;;;;8.63;1.60;;;;;;;25.13;75.54;102023.53;5015846;28;20062;-77
2023/06/27 10:55:13;;;;;;;5.60;1.58;;;;;;;25.33;75.30;102023.06;4996856;28;20076;-78
2023/06/27 10:57:39;;;;;;;14.45;2.20;;;;;;;25.57;73.45;102020.94;4993784;28;20100;-77
2023/06/27 11:00:16;;;;;;;10.25;1.80;;;;;;;25.85;75.30;102024.63;4993850;28;20034;-77
2023/06/27 11:02:42;;;;;;;17.65;3.40;;;;;;;26.38;73.31;102031.31;4994755;28;20030;-77
2023/06/27 11:05:16;;;;;;;12.13;2.03;;;;;;;26.81;71.19;102037.06;5011521;28;20022;-77
2023/06/27 11:07:52;;;;;;;7.78;1.90;;;;;;;26.82;69.49;102047.00;4994570;28;20088;-77
2023/06/27 11:10:25;;;;;;;6.90;1.67;;;;;;;27.07;67.85;102029.81;5013151;28;20056;-77
2023/06/27 11:12:51;;;;;;;4.75;1.60;;;;;;;26.59;66.48;102032.41;5012740;28;20329;-78